Time;durP1;ratioP1;P1;durP2;ratioP2;P2;SDS_P1;SDS_P2;PMS_P1;PMS_P2;Temp;Humidity;BMP_temperature;BMP_pressure;BME280_temperature;BME280_humidity;BME280_pressure;Samples;Min_cycle;Max_cycle;Signal;HPM_P1;HPM_P2
2024/01/13 00:10:46;;;;;;;90.45;64.07;;;;;;;20.63;45.33;101681.00;31523181;28;20313;-41
2024/01/13 00:25:49;;;;;;;89.57;60.20;;;;;;;20.55;45.15;101664.75;31496897;28;20237;-41
2024/01/13 00:40:52;;;;;;;77.57;53.55;;;;;;;20.49;45.23;101647.06;31512998;28;20223;-45
2024/01/13 00:55:55;;;;;;;72.15;48.58;;;;;;;20.42;45.25;101634.50;31524832;28;20223;-44
2024/01/13 01:10:58;;;;;;;62.95;43.67;;;;;;;20.37;45.42;101626.16;31509013;28;20513;-38
2024/01/13 01:26:01;;;;;;;63.45;42.35;;;;;;;20.29;45.31;101617.22;31519815;28;20241;-38
2024/01/13 01:41:04;;;;;;;52.72;37.22;;;;;;;20.25;45.32;101601.22;31525478;28;20334;-38
2024/01/13 01:56:11;;;;;;;52.33;36.75;;;;;;;20.15;45.62;101605.06;31431385;28;20322;-36
2024/01/13 02:11:14;;;;;;;49.38;34.67;;;;;;;20.14;45.23;101588.44;31443231;28;20234;-43
2024/01/13 02:26:17;;;;;;;46.63;31.98;;;;;;;20.11;45.53;101560.81;31474679;28;20333;-38
2024/01/13 02:41:20;;;;;;;40.97;28.92;;;;;;;20.06;45.39;101558.09;31490186;28;20542;-38
2024/01/13 02:56:23;;;;;;;40.42;27.67;;;;;;;20.03;45.51;101550.25;31499243;28;20306;-38
2024/01/13 03:11:26;;;;;;;34.33;25.73;;;;;;;19.97;45.31;101509.97;31489390;28;20230;-38
2024/01/13 03:26:29;;;;;;;35.72;24.50;;;;;;;20.05;45.53;101482.94;31461001;28;20721;-39
2024/01/13 03:41:32;;;;;;;30.58;22.02;;;;;;;20.29;45.38;101483.50;31460748;28;20219;-38
2024/01/13 03:56:35;;;;;;;30.38;21.38;;;;;;;20.43;45.15;101452.38;31472473;28;20553;-38
2024/01/13 04:11:38;;;;;;;28.17;20.00;;;;;;;20.52;44.72;101442.78;31492614;28;20230;-38
2024/01/13 04:26:41;;;;;;;37.42;27.27;;;;;;;20.70;44.69;101443.75;31472256;28;20326;-38
2024/01/13 04:41:45;;;;;;;91.90;60.83;;;;;;;20.74;44.56;101421.31;31459114;28;20227;-38
2024/01/13 04:56:48;;;;;;;105.53;68.85;;;;;;;20.72;44.42;101413.16;31463577;28;20510;-38
2024/01/13 05:11:52;;;;;;;90.95;63.72;;;;;;;20.74;44.35;101410.84;31547140;28;20305;-37
2024/01/13 05:26:55;;;;;;;75.07;52.30;;;;;;;20.75;44.01;101389.06;31500436;28;20559;-37
2024/01/13 05:41:58;;;;;;;61.75;44.42;;;;;;;20.76;43.49;101390.72;31504072;28;20220;-37
2024/01/13 05:57:01;;;;;;;53.08;37.63;;;;;;;20.76;43.34;101390.72;31504885;28;20257;-37
2024/01/13 06:12:05;;;;;;;45.67;33.20;;;;;;;20.74;43.60;101376.91;31498855;28;20228;-37
2024/01/13 06:27:09;;;;;;;41.63;30.30;;;;;;;20.69;43.43;101365.72;31452880;28;20310;-38
2024/01/13 06:42:12;;;;;;;34.88;26.40;;;;;;;20.64;42.99;101344.03;31473306;28;20258;-38
2024/01/13 06:57:15;;;;;;;34.22;25.10;;;;;;;20.56;43.22;101285.47;31485753;28;20234;-38
2024/01/13 07:12:19;;;;;;;27.65;21.05;;;;;;;20.50;43.34;101309.41;31414002;28;20855;-38
2024/01/13 07:27:22;;;;;;;28.60;20.55;;;;;;;20.40;43.35;101270.06;31434115;28;20231;-37
2024/01/13 07:42:25;;;;;;;22.60;17.45;;;;;;;20.30;43.34;101211.81;31468009;28;20682;-40
2024/01/13 07:57:29;;;;;;;22.77;16.83;;;;;;;20.23;43.52;101185.19;31437443;28;20317;-39
2024/01/13 08:12:33;;;;;;;19.00;14.65;;;;;;;20.15;43.68;101205.75;31434566;28;20227;-39
2024/01/13 08:27:36;;;;;;;19.02;14.40;;;;;;;20.22;43.72;101200.47;31446967;28;20228;-38
2024/01/13 08:42:39;;;;;;;16.83;12.32;;;;;;;20.29;43.63;101169.72;31448127;28;20227;-38
2024/01/13 08:57:42;;;;;;;16.15;11.88;;;;;;;20.33;43.89;101174.41;31443462;28;20529;-39
2024/01/13 09:12:45;;;;;;;13.70;9.93;;;;;;;20.35;43.57;101159.97;31442078;28;21057;-38
2024/01/13 09:27:48;;;;;;;17.73;9.98;;;;;;;20.46;44.04;101144.38;31460692;28;20649;-44
2024/01/13 09:43:01;;;;;;;56.63;35.00;;;;;;;20.60;44.85;101167.72;31443369;28;20249;-38
2024/01/13 09:58:05;;;;;;;335.75;229.38;;;;;;;20.73;46.31;101170.72;31474558;28;20241;-38
2024/01/13 10:13:08;;;;;;;177.73;114.38;;;;;;;20.94;45.48;101149.09;31486107;28;20256;-37
2024/01/13 10:28:11;;;;;;;127.70;85.63;;;;;;;21.17;45.96;101141.28;31444641;28;20313;-41
2024/01/13 10:43:14;;;;;;;330.13;225.60;;;;;;;21.43;46.05;101121.44;31456559;28;20664;-44
2024/01/13 10:58:18;;;;;;;175.85;116.45;;;;;;;21.65;45.21;101090.09;31435215;28;20246;-44
2024/01/13 11:13:23;;;;;;;159.32;104.70;;;;;;;21.61;45.10;101077.78;31428137;28;20688;-39
2024/01/13 11:28:26;;;;;;;127.28;83.57;;;;;;;21.71;45.57;101026.41;31449818;28;20315;-41
2024/01/13 11:43:29;;;;;;;107.35;69.63;;;;;;;21.68;45.10;101027.09;31444135;28;20241;-51
2024/01/13 11:58:34;;;;;;;84.05;54.63;;;;;;;21.44;44.55;101019.19;31440946;28;20514;-37
2024/01/13 12:13:37;;;;;;;68.75;44.63;;;;;;;21.65;44.48;100990.94;31454639;28;20645;-39
2024/01/13 12:28:41;;;;;;;61.33;40.33;;;;;;;21.85;45.30;100961.00;31478160;28;20226;-39
2024/01/13 12:43:44;;;;;;;63.85;34.67;;;;;;;21.88;46.13;100912.16;31463236;28;20231;-38
2024/01/13 12:58:47;;;;;;;49.30;30.42;;;;;;;21.83;45.23;100918.84;31457322;28;20630;-39
2024/01/13 13:13:50;;;;;;;42.20;25.70;;;;;;;21.68;45.23;100913.78;31480213;28;20227;-37
2024/01/13 13:28:53;;;;;;;36.00;24.17;;;;;;;21.66;44.70;100922.63;31482535;28;20231;-39
2024/01/13 13:43:56;;;;;;;37.55;22.50;;;;;;;21.73;45.83;100890.91;31481778;28;20223;-39
2024/01/13 13:58:59;;;;;;;33.45;21.15;;;;;;;21.84;45.20;100883.66;31458715;28;20238;-38
2024/01/13 14:14:03;;;;;;;56.42;36.08;;;;;;;21.95;45.05;100884.91;31469319;28;21218;-36
2024/01/13 14:29:07;;;;;;;125.95;80.25;;;;;;;22.12;45.61;100849.94;31477073;28;20224;-43
2024/01/13 14:44:10;;;;;;;149.23;96.22;;;;;;;22.12;45.40;100835.78;31453483;28;20229;-42
2024/01/13 14:59:13;;;;;;;225.23;142.60;;;;;;;22.46;45.01;100812.72;31450189;28;20218;-37
2024/01/13 15:14:16;;;;;;;286.45;191.38;;;;;;;22.56;45.74;100817.16;31427517;28;20262;-37
2024/01/13 15:29:19;;;;;;;307.60;214.00;;;;;;;22.55;45.81;100801.31;31455702;28;20230;-37
2024/01/13 15:44:22;;;;;;;261.13;180.88;;;;;;;22.62;45.71;100781.69;31446875;28;20233;-37
2024/01/13 15:59:25;;;;;;;327.83;240.15;;;;;;;22.46;46.06;100780.69;31447926;28;20234;-37
2024/01/13 16:14:28;;;;;;;214.43;146.02;;;;;;;22.21;44.07;100765.63;31467269;28;20615;-37
2024/01/13 16:29:32;;;;;;;194.65;130.98;;;;;;;22.26;45.30;100753.25;31480063;28;20222;-37
2024/01/13 16:44:35;;;;;;;143.82;97.35;;;;;;;22.35;43.54;100757.66;31463680;28;20219;-37
2024/01/13 16:59:38;;;;;;;285.65;207.65;;;;;;;22.52;46.24;100742.44;31442543;28;20589;-37
2024/01/13 17:14:41;;;;;;;463.30;341.77;;;;;;;22.55;45.78;100733.22;31434119;28;20251;-37
2024/01/13 17:29:45;;;;;;;341.02;257.58;;;;;;;22.65;46.52;100710.06;31477761;28;20227;-37
2024/01/13 17:44:48;;;;;;;338.08;246.65;;;;;;;22.80;46.33;100700.03;31452662;28;20229;-49
2024/01/13 17:59:51;;;;;;;483.55;369.23;;;;;;;22.98;46.95;100690.06;31449639;28;20231;-48
2024/01/13 18:14:54;;;;;;;262.42;188.00;;;;;;;23.03;46.12;100698.34;31434431;28;20226;-40
2024/01/13 18:29:57;;;;;;;344.20;254.95;;;;;;;22.99;47.45;100686.06;31460869;28;20318;-45
2024/01/13 18:45:00;;;;;;;195.25;136.68;;;;;;;23.01;47.57;100695.03;31461650;28;20230;-52
2024/01/13 19:00:05;;;;;;;319.33;233.65;;;;;;;22.89;46.60;100680.03;31448839;28;20215;-51
2024/01/13 19:15:08;;;;;;;343.15;245.80;;;;;;;23.12;46.02;100664.97;31438067;28;20598;-52
2024/01/13 19:30:12;;;;;;;1225.50;901.17;;;;;;;23.48;46.45;100672.56;31443494;28;20290;-52
2024/01/13 19:45:16;;;;;;;1046.20;819.83;;;;;;;23.74;45.70;100651.41;31487583;28;20519;-52
2024/01/13 20:00:19;;;;;;;760.10;645.65;;;;;;;23.81;45.92;100643.06;31420649;28;20499;-52
2024/01/13 20:15:22;;;;;;;567.10;489.15;;;;;;;23.76;48.07;100621.41;31466910;28;20223;-45
2024/01/13 20:30:25;;;;;;;499.80;407.20;;;;;;;23.30;45.23;100608.72;31453827;28;20541;-50
2024/01/13 20:45:28;;;;;;;409.55;332.42;;;;;;;23.16;44.57;100585.59;31444351;28;20229;-47
2024/01/13 21:00:32;;;;;;;320.55;260.85;;;;;;;23.09;44.28;100582.56;31483128;28;20225;-47
2024/01/13 21:15:35;;;;;;;339.52;271.25;;;;;;;22.95;44.50;100548.06;31487197;28;20230;-47
2024/01/13 21:30:38;;;;;;;282.77;225.38;;;;;;;22.84;44.27;100544.09;31451576;28;20263;-48
2024/01/13 21:45:41;;;;;;;239.45;182.68;;;;;;;22.73;44.73;100529.53;31497834;28;20235;-47
2024/01/13 22:00:45;;;;;;;197.70;144.88;;;;;;;22.64;44.60;100509.81;31461998;28;20351;-50
2024/01/13 22:15:48;;;;;;;170.38;125.97;;;;;;;22.60;44.06;100500.38;31479384;28;20242;-48
2024/01/13 22:30:51;;;;;;;188.35;139.60;;;;;;;22.53;44.57;100476.66;31491325;28;20314;-46
2024/01/13 22:45:54;;;;;;;196.88;145.30;;;;;;;22.47;44.57;100467.56;31496586;28;20223;-49
2024/01/13 23:00:57;;;;;;;177.30;131.18;;;;;;;22.36;44.16;100455.06;31475772;28;20319;-48
2024/01/13 23:16:03;;;;;;;158.95;118.05;;;;;;;22.20;44.47;100454.19;31590933;28;20227;-50
2024/01/13 23:31:06;;;;;;;148.43;110.57;;;;;;;22.09;45.00;100425.47;31535608;28;20225;-45
2024/01/13 23:46:09;;;;;;;140.70;102.13;;;;;;;21.97;44.70;100409.28;31584119;28;20313;-38
